This is the latest recevied weather packets stored in our database for station/object KK7RJD. If no packets are shown the sender has not sent any weather packets the latest 10 day(s).
| Time | Temp. | Humidity | Pressure | Rain* | Wind** | Luminosity | Snow |
|---|---|---|---|---|---|---|---|
| 1777487532 | 10° C | 49% | 1021 hPa | 0 mm | - | 914 W/m² | - |
| 1777487229 | 10.56° C | 46% | 1020.9 hPa | 0 mm | - | 317 W/m² | - |
| 1777486925 | 10.56° C | 50% | 1020.8 hPa | 0 mm | - | 880 W/m² | - |
| 1777486622 | 9.44° C | 52% | 1020.8 hPa | 0 mm | - | 725 W/m² | - |
| 1777486320 | 8.89° C | 57% | 1020.8 hPa | 0 mm | - | 702 W/m² | - |
| 1777486017 | 8.89° C | 58% | 1020.8 hPa | 0 mm | - | 335 W/m² | - |
| 1777485714 | 10° C | 51% | 1020.8 hPa | 0 mm | - | 266 W/m² | - |
| 1777485409 | 10° C | 48% | 1020.7 hPa | 0 mm | - | 203 W/m² | - |
| 1777485105 | 10° C | 48% | 1020.6 hPa | 0 mm | - | 694 W/m² | - |
| 1777484802 | 10.56° C | 44% | 1020.6 hPa | 0 mm | - | 331 W/m² | - |
| 1777484498 | 10° C | 45% | 1020.7 hPa | 0 mm | - | 271 W/m² | - |
| 1777484196 | 10° C | 44% | 1020.7 hPa | 0 mm | - | 262 W/m² | - |
| 1777483891 | 10.56° C | 45% | 1020.5 hPa | 0 mm | - | 230 W/m² | - |
| 1777483588 | 11.11° C | 43% | 1020.6 hPa | 0 mm | - | 181 W/m² | - |
| 1777483288 | 11.11° C | 43% | 1020.5 hPa | 0 mm | - | 199 W/m² | - |
| 1777482985 | 11.67° C | 42% | 1020.5 hPa | 0 mm | - | 286 W/m² | - |
| 1777482681 | 12.22° C | 41% | 1020.6 hPa | 0 mm | - | 476 W/m² | - |
| 1777482378 | 11.67° C | 41% | 1020.6 hPa | 0 mm | - | 941 W/m² | - |
| 1777482075 | 10° C | 46% | 1020.8 hPa | 0 mm | - | 831 W/m² | - |
| 1777481773 | 10.56° C | 46% | 1020.7 hPa | 0 mm | - | 299 W/m² | - |
| 1777481470 | 10° C | 51% | 1020.8 hPa | 0 mm | - | 376 W/m² | - |
| 1777481166 | 9.44° C | 51% | 1020.7 hPa | 0 mm | - | 769 W/m² | - |
| 1777480863 | 10° C | 51% | 1020.9 hPa | 0 mm | - | 383 W/m² | - |
| 1777480559 | 9.44° C | 50% | 1020.9 hPa | 0 mm | - | 333 W/m² | - |
| 1777480256 | 9.44° C | 51% | 1020.7 hPa | 0 mm | - | 317 W/m² | - |
* Rain latest hour (hover to see other rain measurements)
** Current wind speed in m/s (hover to see current wind gust speed)